TimeCST,TemperatureF,Dew PointF,Humidity,Sea Level PressureIn,VisibilityMPH,Wind Direction,Wind SpeedMPH,Gust SpeedMPH,PrecipitationIn,Events,Conditions,WindDirDegrees,DateUTC
12:15 AM,13.1,10.6,90,29.94,10.0,SW,4.6,-,N/A,,Clear,220,2013-02-23 06:15:00
12:35 AM,12.0,9.5,90,29.93,10.0,SW,5.8,-,N/A,,Clear,220,2013-02-23 06:35:00
12:55 AM,11.3,9.1,91,29.93,10.0,SW,4.6,-,N/A,,Clear,230,2013-02-23 06:55:00
1:15 AM,12.0,9.3,89,29.92,10.0,SW,4.6,-,N/A,,Clear,230,2013-02-23 07:15:00
1:35 AM,13.5,11.1,90,29.92,10.0,SW,5.8,-,N/A,,Clear,230,2013-02-23 07:35:00
1:55 AM,14.7,12.2,90,29.91,10.0,SW,6.9,-,N/A,,Clear,220,2013-02-23 07:55:00
2:15 AM,14.7,12.2,90,29.90,10.0,SW,4.6,-,N/A,,Clear,230,2013-02-23 08:15:00
2:35 AM,14.9,12.2,89,29.90,10.0,SW,3.5,-,N/A,,Clear,220,2013-02-23 08:35:00
2:55 AM,14.7,12.0,89,29.89,10.0,Calm,Calm,-,N/A,,Clear,0,2013-02-23 08:55:00
3:15 AM,13.6,10.9,89,29.88,10.0,SW,3.5,-,N/A,,Clear,220,2013-02-23 09:15:00
3:35 AM,13.1,10.4,89,29.87,10.0,SSW,4.6,-,N/A,,Clear,210,2013-02-23 09:35:00
3:55 AM,12.9,10.4,90,29.86,7.0,SSW,4.6,-,N/A,,Clear,210,2013-02-23 09:55:00
4:15 AM,13.1,10.4,89,29.86,10.0,WSW,4.6,-,N/A,,Clear,240,2013-02-23 10:15:00
4:35 AM,17.2,14.0,87,29.85,10.0,WSW,9.2,-,N/A,,Clear,250,2013-02-23 10:35:00
4:55 AM,16.7,13.1,86,29.86,10.0,West,5.8,-,N/A,,Clear,260,2013-02-23 10:55:00
5:15 AM,16.5,12.7,85,29.85,10.0,West,6.9,-,N/A,,Clear,260,2013-02-23 11:15:00
5:35 AM,16.9,12.9,84,29.85,10.0,Calm,Calm,-,N/A,,Clear,0,2013-02-23 11:35:00
5:55 AM,15.6,11.5,84,29.86,10.0,WSW,3.5,-,N/A,,Clear,250,2013-02-23 11:55:00
6:15 AM,15.3,11.7,86,29.85,10.0,WSW,4.6,-,N/A,,Clear,250,2013-02-23 12:15:00
6:35 AM,12.0,8.1,84,29.84,10.0,WSW,5.8,-,N/A,,Clear,250,2013-02-23 12:35:00
6:55 AM,12.7,9.3,86,29.84,10.0,WSW,5.8,-,N/A,,Clear,240,2013-02-23 12:55:00
7:15 AM,9.5,6.1,86,29.83,10.0,SW,5.8,-,N/A,,Clear,220,2013-02-23 13:15:00
7:35 AM,9.3,5.9,86,29.83,7.0,SW,4.6,-,N/A,,Clear,230,2013-02-23 13:35:00
7:55 AM,10.8,7.5,87,29.83,7.0,SW,8.1,-,N/A,,Clear,220,2013-02-23 13:55:00
8:15 AM,13.8,10.2,86,29.84,10.0,West,3.5,-,N/A,,Clear,260,2013-02-23 14:15:00
8:35 AM,15.6,11.1,82,29.84,10.0,SW,3.5,-,N/A,,Clear,230,2013-02-23 14:35:00
8:55 AM,16.5,11.5,81,29.84,10.0,WSW,4.6,-,N/A,,Clear,240,2013-02-23 14:55:00
9:15 AM,18.0,12.2,78,29.84,10.0,Calm,Calm,-,N/A,,Clear,0,2013-02-23 15:15:00
9:35 AM,22.8,15.3,73,29.83,10.0,WSW,9.2,-,N/A,,Clear,250,2013-02-23 15:35:00
9:55 AM,24.8,15.8,69,29.83,10.0,WSW,11.5,-,N/A,,Clear,240,2013-02-23 15:55:00
10:15 AM,25.7,16.7,69,29.83,10.0,West,15.0,19.6,N/A,,Clear,260,2013-02-23 16:15:00
10:35 AM,26.1,16.7,68,29.83,10.0,West,12.7,-,N/A,,Clear,260,2013-02-23 16:35:00
10:55 AM,27.5,18.7,69,29.83,10.0,WSW,8.1,-,N/A,,Clear,240,2013-02-23 16:55:00
11:15 AM,28.9,18.9,66,29.83,10.0,WSW,11.5,-,N/A,,Clear,250,2013-02-23 17:15:00
11:35 AM,29.8,19.2,65,29.83,10.0,WSW,13.8,-,N/A,,Clear,250,2013-02-23 17:35:00
11:55 AM,29.1,18.7,65,29.82,10.0,WSW,11.5,-,N/A,,Clear,240,2013-02-23 17:55:00
12:15 PM,30.6,20.3,66,29.82,10.0,SW,9.2,-,N/A,,Clear,220,2013-02-23 18:15:00
12:35 PM,29.5,19.9,68,29.81,10.0,SW,11.5,-,N/A,,Clear,220,2013-02-23 18:35:00
12:55 PM,28.8,19.8,69,29.81,10.0,SW,12.7,-,N/A,,Clear,230,2013-02-23 18:55:00
1:15 PM,28.6,19.9,70,29.80,10.0,SW,11.5,-,N/A,,Clear,220,2013-02-23 19:15:00
1:35 PM,29.3,20.1,69,29.79,10.0,SW,10.4,-,N/A,,Clear,230,2013-02-23 19:35:00
1:55 PM,30.0,21.2,70,29.79,10.0,SW,9.2,-,N/A,,Clear,220,2013-02-23 19:55:00
2:15 PM,31.6,22.1,68,29.78,10.0,SSW,9.2,-,N/A,,Clear,210,2013-02-23 20:15:00
2:35 PM,32.0,22.1,67,29.76,10.0,SW,9.2,-,N/A,,Clear,220,2013-02-23 20:35:00
2:55 PM,32.2,23.0,69,29.75,10.0,SSW,9.2,-,N/A,,Clear,200,2013-02-23 20:55:00
3:15 PM,32.0,23.5,71,29.76,10.0,SSW,6.9,-,N/A,,Clear,210,2013-02-23 21:15:00
3:35 PM,32.2,23.0,69,29.75,10.0,South,5.8,-,N/A,,Clear,180,2013-02-23 21:35:00
3:55 PM,32.0,23.0,69,29.75,10.0,South,9.2,-,N/A,,Clear,190,2013-02-23 21:55:00
4:15 PM,32.5,23.9,70,29.75,10.0,SSW,8.1,-,N/A,,Clear,200,2013-02-23 22:15:00
4:35 PM,33.1,25.2,73,29.75,10.0,SSW,10.4,-,N/A,,Clear,200,2013-02-23 22:35:00
4:55 PM,33.8,26.4,74,29.75,10.0,SSW,10.4,-,N/A,,Clear,210,2013-02-23 22:55:00
5:15 PM,32.7,26.6,78,29.74,10.0,South,8.1,-,N/A,,Clear,180,2013-02-23 23:15:00
5:35 PM,31.6,26.2,80,29.73,10.0,South,10.4,-,N/A,,Clear,170,2013-02-23 23:35:00
5:55 PM,30.2,25.2,82,29.74,10.0,South,10.4,-,N/A,,Clear,180,2013-02-23 23:55:00
6:15 PM,29.5,24.6,82,29.74,10.0,South,12.7,-,N/A,,Clear,180,2013-02-24 00:15:00
6:35 PM,28.6,23.9,83,29.74,10.0,South,10.4,-,N/A,,Clear,180,2013-02-24 00:35:00
6:55 PM,27.5,23.2,84,29.75,10.0,South,6.9,-,N/A,,Clear,180,2013-02-24 00:55:00
7:15 PM,27.3,23.5,86,29.76,10.0,South,5.8,9.2,N/A,,Clear,180,2013-02-24 01:15:00
7:35 PM,24.8,21.4,87,29.76,7.0,South,8.1,-,N/A,,Clear,170,2013-02-24 01:35:00
7:55 PM,23.7,20.8,89,29.76,7.0,South,8.1,-,N/A,,Clear,180,2013-02-24 01:55:00
8:15 PM,25.3,22.5,89,29.77,7.0,South,9.2,-,N/A,,Clear,190,2013-02-24 02:15:00
8:35 PM,25.7,23.4,91,29.78,7.0,South,8.1,-,N/A,,Clear,190,2013-02-24 02:35:00
8:55 PM,26.1,23.5,90,29.78,7.0,South,8.1,-,N/A,,Clear,190,2013-02-24 02:55:00
9:15 PM,26.6,23.9,90,29.78,7.0,South,6.9,-,N/A,,Clear,170,2013-02-24 03:15:00
9:35 PM,24.8,22.5,91,29.78,7.0,South,6.9,-,N/A,,Clear,180,2013-02-24 03:35:00
10:15 PM,23.0,21.2,93,29.78,5.0,South,6.9,-,N/A,,Clear,190,2013-02-24 04:15:00
10:35 PM,22.8,21.0,93,29.79,5.0,South,6.9,-,N/A,,Clear,180,2013-02-24 04:35:00
10:55 PM,21.7,20.1,93,29.78,4.0,South,6.9,-,N/A,,Clear,180,2013-02-24 04:55:00
11:15 PM,22.6,21.2,94,29.78,3.0,South,5.8,-,N/A,,Clear,180,2013-02-24 05:15:00
11:35 PM,21.9,20.3,93,29.78,3.0,SSW,3.5,-,N/A,,Clear,200,2013-02-24 05:35:00
11:55 PM,22.1,20.3,93,29.78,0.5,SSW,5.8,-,N/A,Fog,Light Freezing Fog,200,2013-02-24 05:55:00